Terminal Aerodrome Forecast
Issued by NWS Sterling, VA

Current Version | Previous Version | Text Only | Print | Product List | Glossary On
Versions: 1 2 3 4 5 6 7 8 9 10 11 12 13 14 15 16 17 18 19 20 21 22 23 24
961
FTUS41 KLWX 101728
TAFBWI
TAF
KBWI 101728Z 1018/1124 28016G22KT P6SM BKN045 BKN100
     FM110500 28012G20KT P6SM BKN090
     FM110800 28013G22KT P6SM SCT050
     FM112200 29015G22KT P6SM SCT250=

USA.gov is the U.S. government's official web portal to all federal, state and local government web resources and services.